Time;durP1;ratioP1;P1;durP2;ratioP2;P2;SDS_P1;SDS_P2;PMS_P1;PMS_P2;Temp;Humidity;BMP_temperature;BMP_pressure;BME280_temperature;BME280_humidity;BME280_pressure;Samples;Min_cycle;Max_cycle;Signal;HPM_P1;HPM_P2
2021/07/27 00:01:29;;;;;;;;;;;;;;;;;;5133444;27;19965;-71
2021/07/27 00:03:55;;;;;;;;;;;;;;;;;;5133850;27;19965;-71
2021/07/27 00:06:21;;;;;;;;;;;;;;;;;;5151917;27;19990;-71
2021/07/27 00:08:47;;;;;;;;;;;;;;;;;;5152245;27;19921;-71
2021/07/27 00:11:13;;;;;;;;;;;;;;;;;;5152158;27;20290;-71
2021/07/27 00:13:42;;;;;;;;;;;;;;;;;;5152012;27;19918;-71
2021/07/27 00:16:08;;;;;;;;;;;;;;;;;;5152138;27;19908;-71
2021/07/27 00:18:34;;;;;;;;;;;;;;;;;;5133562;27;19907;-71
2021/07/27 00:21:00;;;;;;;;;;;;;;;;;;5151784;27;19908;-71
2021/07/27 00:23:26;;;;;;;;;;;;;;;;;;5152006;27;20339;-71
2021/07/27 00:25:52;;;;;;;;;;;;;;;;;;5151951;27;19914;-71
2021/07/27 00:28:18;;;;;;;;;;;;;;;;;;5151597;27;19941;-70
2021/07/27 00:30:44;;;;;;;;;;;;;;;;;;5151865;27;20378;-71
2021/07/27 00:33:10;;;;;;;;;;;;;;;;;;5133284;27;19943;-72
2021/07/27 00:35:36;;;;;;;;;;;;;;;;;;5151610;27;19961;-71
2021/07/27 00:38:08;;;;;;;;;;;;;;;;;;5133146;27;20367;-72
2021/07/27 00:40:34;;;;;;;;;;;;;;;;;;5141226;27;19908;-71
2021/07/27 00:43:00;;;;;;;;;;;;;;;;;;5137467;27;19907;-71
2021/07/27 00:45:26;;;;;;;;;;;;;;;;;;5137778;27;19915;-72
2021/07/27 00:47:52;;;;;;;;;;;;;;;;;;5137660;27;19911;-72
2021/07/27 00:50:18;;;;;;;;;;;;;;;;;;5137239;27;19964;-72
2021/07/27 00:52:44;;;;;;;;;;;;;;;;;;5137671;27;19907;-72
2021/07/27 00:55:10;;;;;;;;;;;;;;;;;;5137567;27;20287;-72
2021/07/27 00:57:36;;;;;;;;;;;;;;;;;;5137163;27;19956;-71
2021/07/27 01:00:02;;;;;;;;;;;;;;;;;;5137487;27;20379;-71
2021/07/27 01:02:30;;;;;;;;;;;;;;;;;;5137380;27;19908;-71
2021/07/27 01:04:56;;;;;;;;;;;;;;;;;;5137024;27;19961;-71
2021/07/27 01:07:24;;;;;;;;;;;;;;;;;;5137227;27;19911;-71
2021/07/27 01:09:50;;;;;;;;;;;;;;;;;;5118467;27;20295;-71
2021/07/27 01:12:16;;;;;;;;;;;;;;;;;;5137515;27;19911;-71
2021/07/27 01:14:42;;;;;;;;;;;;;;;;;;5137189;27;19942;-71
2021/07/27 01:17:08;;;;;;;;;;;;;;;;;;5136791;27;20264;-71
2021/07/27 01:19:49;;;;;;;;;;;;;;;;;;5137696;27;19973;-71
2021/07/27 01:43:55;;;;;;;;;;;;;;;;;;5136635;27;19994;-71
2021/07/27 01:46:25;;;;;;;;;;;;;;;;;;5136195;27;19914;-71
2021/07/27 01:48:51;;;;;;;;;;;;;;;;;;5117983;27;19915;-72
2021/07/27 01:51:17;;;;;;;;;;;;;;;;;;5116989;28;20002;-72
2021/07/27 01:53:54;;;;;;;;;;;;;;;;;;5117579;27;19960;-71
2021/07/27 01:56:20;;;;;;;;;;;;;;;;;;5136637;27;20367;-71
2021/07/27 01:58:46;;;;;;;;;;;;;;;;;;5136414;27;19908;-71
2021/07/27 02:01:12;;;;;;;;;;;;;;;;;;5117534;27;20273;-73
2021/07/27 02:03:38;;;;;;;;;;;;;;;;;;5117787;27;19908;-71
2021/07/27 02:06:03;;;;;;;;;;;;;;;;;;5135810;27;20001;-71
2021/07/27 02:08:29;;;;;;;;;;;;;;;;;;5136557;27;19970;-71
2021/07/27 02:10:59;;;;;;;;;;;;;;;;;;5136146;27;19907;-71
2021/07/27 02:13:29;;;;;;;;;;;;;;;;;;5135588;27;19907;-71
2021/07/27 02:15:55;;;;;;;;;;;;;;;;;;5136037;27;20271;-70
2021/07/27 02:18:21;;;;;;;;;;;;;;;;;;5136286;27;19907;-71
2021/07/27 02:20:47;;;;;;;;;;;;;;;;;;5117132;27;19907;-71
2021/07/27 02:23:13;;;;;;;;;;;;;;;;;;5135862;27;20016;-70
2021/07/27 02:25:39;;;;;;;;;;;;;;;;;;5117433;27;19934;-70
2021/07/27 02:28:06;;;;;;;;;;;;;;;;;;5135163;27;20010;-71
2021/07/27 02:30:37;;;;;;;;;;;;;;;;;;5136008;27;19907;-70
2021/07/27 02:33:03;;;;;;;;;;;;;;;;;;5135946;27;19997;-70
2021/07/27 02:35:29;;;;;;;;;;;;;;;;;;5116770;27;20006;-70
2021/07/27 02:37:55;;;;;;;;;;;;;;;;;;5135608;27;19907;-70
2021/07/27 02:40:21;;;;;;;;;;;;;;;;;;5135510;27;19911;-70
2021/07/27 02:42:48;;;;;;;;;;;;;;;;;;5116651;27;19907;-70
2021/07/27 02:45:14;;;;;;;;;;;;;;;;;;5135714;27;20321;-71
2021/07/27 02:47:40;;;;;;;;;;;;;;;;;;5135788;27;19914;-70
2021/07/27 02:50:06;;;;;;;;;;;;;;;;;;5135075;27;19915;-71
2021/07/27 02:52:32;;;;;;;;;;;;;;;;;;5135361;27;19914;-71
2021/07/27 02:54:58;;;;;;;;;;;;;;;;;;5116837;27;20351;-71
2021/07/27 02:57:24;;;;;;;;;;;;;;;;;;5134906;27;19947;-71
2021/07/27 02:59:50;;;;;;;;;;;;;;;;;;5135230;27;19930;-70
2021/07/27 03:02:16;;;;;;;;;;;;;;;;;;5135158;27;19908;-70
2021/07/27 03:04:42;;;;;;;;;;;;;;;;;;5135120;27;20378;-71
2021/07/27 03:09:16;;;;;;;;;;;;;;;;;;5111647;27;19916;-71
2021/07/27 03:11:43;;;;;;;;;;;;;;;;;;5111810;28;19919;-70
2021/07/27 03:14:09;;;;;;;;;;;;;;;;;;5112376;28;19908;-71
2021/07/27 03:16:35;;;;;;;;;;;;;;;;;;5111369;28;20002;-71
2021/07/27 03:19:01;;;;;;;;;;;;;;;;;;5111859;28;20339;-70
2021/07/27 03:21:27;;;;;;;;;;;;;;;;;;5111650;28;20280;-70
2021/07/27 03:23:53;;;;;;;;;;;;;;;;;;5111197;28;20395;-70
2021/07/27 03:26:19;;;;;;;;;;;;;;;;;;5111554;28;19908;-70
2021/07/27 03:28:45;;;;;;;;;;;;;;;;;;5111385;28;19923;-70
2021/07/27 03:31:11;;;;;;;;;;;;;;;;;;5111235;28;19915;-70
2021/07/27 03:33:37;;;;;;;;;;;;;;;;;;5111644;28;19908;-70
2021/07/27 03:36:02;;;;;;;;;;;;;;;;;;5111633;28;20374;-70
2021/07/27 03:38:29;;;;;;;;;;;;;;;;;;5111104;28;19958;-70
2021/07/27 03:40:55;;;;;;;;;;;;;;;;;;5111229;28;19912;-70
2021/07/27 03:43:21;;;;;;;;;;;;;;;;;;5111357;28;20382;-70
2021/07/27 03:45:47;;;;;;;;;;;;;;;;;;5110834;28;19915;-70
2021/07/27 03:48:13;;;;;;;;;;;;;;;;;;5111284;28;19916;-70
2021/07/27 03:50:39;;;;;;;;;;;;;;;;;;5111075;28;20270;-70
2021/07/27 03:53:05;;;;;;;;;;;;;;;;;;5110748;28;19908;-71
2021/07/27 03:55:31;;;;;;;;;;;;;;;;;;5111042;28;19908;-71
2021/07/27 03:57:56;;;;;;;;;;;;;;;;;;5110918;28;19930;-71
2021/07/27 04:00:22;;;;;;;;;;;;;;;;;;5110562;28;19915;-71
2021/07/27 04:02:48;;;;;;;;;;;;;;;;;;5110872;28;20367;-71
2021/07/27 04:05:14;;;;;;;;;;;;;;;;;;5110829;28;19999;-70
2021/07/27 04:07:40;;;;;;;;;;;;;;;;;;5110091;28;20034;-72
2021/07/27 04:10:06;;;;;;;;;;;;;;;;;;5109446;28;20384;-71
2021/07/27 04:12:32;;;;;;;;;;;;;;;;;;5109110;28;19908;-71
2021/07/27 04:14:58;;;;;;;;;;;;;;;;;;5110576;28;19915;-71
2021/07/27 04:17:24;;;;;;;;;;;;;;;;;;5110935;28;19916;-70
2021/07/27 04:22:07;;;;;;;;;;;;;;;;;;5112126;27;19922;-70
2021/07/27 04:24:33;;;;;;;;;;;;;;;;;;5111808;28;19994;-70
2021/07/27 04:26:59;;;;;;;;;;;;;;;;;;5111752;28;20347;-71
2021/07/27 04:29:25;;;;;;;;;;;;;;;;;;5112065;28;19908;-70
2021/07/27 04:31:51;;;;;;;;;;;;;;;;;;5111605;28;19908;-71
2021/07/27 04:34:17;;;;;;;;;;;;;;;;;;5111243;28;19912;-71
2021/07/27 04:36:43;;;;;;;;;;;;;;;;;;5111615;28;19952;-71
2021/07/27 04:39:09;;;;;;;;;;;;;;;;;;5111732;28;19908;-71
2021/07/27 04:41:35;;;;;;;;;;;;;;;;;;5109763;28;20420;-71
2021/07/27 04:44:01;;;;;;;;;;;;;;;;;;5111511;28;19915;-71
2021/07/27 04:46:27;;;;;;;;;;;;;;;;;;5111498;28;20383;-71
2021/07/27 04:48:53;;;;;;;;;;;;;;;;;;5110905;28;19959;-71
2021/07/27 04:51:19;;;;;;;;;;;;;;;;;;5111681;28;20443;-71
2021/07/27 04:53:47;;;;;;;;;;;;;;;;;;5111750;28;19991;-71
2021/07/27 04:56:13;;;;;;;;;;;;;;;;;;5109634;28;19912;-71
2021/07/27 04:58:39;;;;;;;;;;;;;;;;;;5111236;28;20394;-71
2021/07/27 05:01:05;;;;;;;;;;;;;;;;;;5111642;28;19916;-70
2021/07/27 05:03:31;;;;;;;;;;;;;;;;;;5111434;28;19909;-70
2021/07/27 05:05:57;;;;;;;;;;;;;;;;;;5111991;28;19912;-70
2021/07/27 05:08:23;;;;;;;;;;;;;;;;;;5111615;28;19908;-71
2021/07/27 05:10:49;;;;;;;;;;;;;;;;;;5110492;28;19914;-71
2021/07/27 05:13:15;;;;;;;;;;;;;;;;;;5110704;28;19962;-71
2021/07/27 05:16:28;;;;;;;;;;;;;;;;;;5111777;27;19916;-70
2021/07/27 05:18:54;;;;;;;;;;;;;;;;;;5111841;28;19995;-71
2021/07/27 05:21:20;;;;;;;;;;;;;;;;;;5111765;28;20436;-71
2021/07/27 05:23:46;;;;;;;;;;;;;;;;;;5111390;28;20269;-70
2021/07/27 05:26:12;;;;;;;;;;;;;;;;;;5111608;28;19908;-70
2021/07/27 05:28:38;;;;;;;;;;;;;;;;;;5110240;28;19919;-71
2021/07/27 05:31:04;;;;;;;;;;;;;;;;;;5111417;28;19914;-70
2021/07/27 05:33:30;;;;;;;;;;;;;;;;;;5110190;28;19908;-72
2021/07/27 05:35:56;;;;;;;;;;;;;;;;;;5110161;28;19916;-70
2021/07/27 05:38:22;;;;;;;;;;;;;;;;;;5111107;28;19915;-70
2021/07/27 05:40:48;;;;;;;;;;;;;;;;;;5111362;28;19916;-70
2021/07/27 05:43:14;;;;;;;;;;;;;;;;;;5110089;28;19911;-70
2021/07/27 05:45:40;;;;;;;;;;;;;;;;;;5110931;28;19939;-70
2021/07/27 05:48:06;;;;;;;;;;;;;;;;;;5111233;28;19934;-70
2021/07/27 05:50:32;;;;;;;;;;;;;;;;;;5110037;28;19908;-70
2021/07/27 05:52:58;;;;;;;;;;;;;;;;;;5110763;28;20334;-71
2021/07/27 05:55:24;;;;;;;;;;;;;;;;;;5110960;28;19922;-70
2021/07/27 05:57:50;;;;;;;;;;;;;;;;;;5111026;28;20359;-70
2021/07/27 06:00:16;;;;;;;;;;;;;;;;;;5110662;28;19915;-70
2021/07/27 06:02:42;;;;;;;;;;;;;;;;;;5109725;28;20307;-70
2021/07/27 06:05:08;;;;;;;;;;;;;;;;;;5110500;28;19930;-70
2021/07/27 06:07:34;;;;;;;;;;;;;;;;;;5110858;28;19915;-70
2021/07/27 06:10:00;;;;;;;;;;;;;;;;;;5111085;28;19920;-71
2021/07/27 06:12:26;;;;;;;;;;;;;;;;;;5110362;28;20364;-70
2021/07/27 06:14:52;;;;;;;;;;;;;;;;;;5110848;28;19966;-70
2021/07/27 06:17:18;;;;;;;;;;;;;;;;;;5111081;28;20308;-70
2021/07/27 06:19:44;;;;;;;;;;;;;;;;;;5110409;28;19915;-70
2021/07/27 06:22:10;;;;;;;;;;;;;;;;;;5110583;28;19908;-70
2021/07/27 06:24:36;;;;;;;;;;;;;;;;;;5110479;28;19954;-70
2021/07/27 06:27:02;;;;;;;;;;;;;;;;;;5100740;28;20270;-70
2021/07/27 06:29:28;;;;;;;;;;;;;;;;;;5095623;28;19919;-70
2021/07/27 06:31:54;;;;;;;;;;;;;;;;;;5095495;28;19912;-70
2021/07/27 06:34:20;;;;;;;;;;;;;;;;;;5096314;28;20353;-70
2021/07/27 06:36:46;;;;;;;;;;;;;;;;;;5096845;28;20003;-70
2021/07/27 06:39:12;;;;;;;;;;;;;;;;;;5097139;28;19914;-70
2021/07/27 06:41:38;;;;;;;;;;;;;;;;;;5096343;28;19916;-70
2021/07/27 06:44:04;;;;;;;;;;;;;;;;;;5095194;28;19909;-70
2021/07/27 06:46:30;;;;;;;;;;;;;;;;;;5096425;28;20277;-70
2021/07/27 06:48:56;;;;;;;;;;;;;;;;;;5096100;28;19908;-71
2021/07/27 06:51:22;;;;;;;;;;;;;;;;;;5096608;28;20414;-70
2021/07/27 06:53:48;;;;;;;;;;;;;;;;;;5097009;28;19915;-70
2021/07/27 06:56:14;;;;;;;;;;;;;;;;;;5094594;28;19927;-70
2021/07/27 06:58:40;;;;;;;;;;;;;;;;;;5096320;28;20376;-70
2021/07/27 07:01:06;;;;;;;;;;;;;;;;;;5096363;28;19912;-70
2021/07/27 07:03:32;;;;;;;;;;;;;;;;;;5095843;28;19977;-70
2021/07/27 07:05:58;;;;;;;;;;;;;;;;;;5096157;28;20371;-70
2021/07/27 07:08:24;;;;;;;;;;;;;;;;;;5095685;28;19908;-70
2021/07/27 07:10:50;;;;;;;;;;;;;;;;;;5096072;28;19961;-70
2021/07/27 07:13:16;;;;;;;;;;;;;;;;;;5096067;28;19915;-71
2021/07/27 07:15:42;;;;;;;;;;;;;;;;;;5095250;28;19920;-70
2021/07/27 07:18:08;;;;;;;;;;;;;;;;;;5096369;28;19908;-71
2021/07/27 07:20:34;;;;;;;;;;;;;;;;;;5095911;28;19954;-70
2021/07/27 07:23:00;;;;;;;;;;;;;;;;;;5094158;28;19908;-71
2021/07/27 07:25:26;;;;;;;;;;;;;;;;;;5095771;28;19943;-70
2021/07/27 07:27:52;;;;;;;;;;;;;;;;;;5095752;28;19908;-70
2021/07/27 07:30:18;;;;;;;;;;;;;;;;;;5095579;28;20368;-71
2021/07/27 07:32:44;;;;;;;;;;;;;;;;;;5095651;28;19954;-71
2021/07/27 07:35:10;;;;;;;;;;;;;;;;;;5095557;28;20370;-70
2021/07/27 07:37:36;;;;;;;;;;;;;;;;;;5094513;28;19910;-70
2021/07/27 07:40:02;;;;;;;;;;;;;;;;;;5093848;28;19916;-70
2021/07/27 07:42:28;;;;;;;;;;;;;;;;;;5095400;28;19932;-70
2021/07/27 07:44:54;;;;;;;;;;;;;;;;;;5095050;28;19908;-70
2021/07/27 07:47:20;;;;;;;;;;;;;;;;;;5095405;28;19908;-71
2021/07/27 07:49:46;;;;;;;;;;;;;;;;;;5095325;28;19957;-70
2021/07/27 07:52:12;;;;;;;;;;;;;;;;;;5093589;28;19908;-71
2021/07/27 07:54:38;;;;;;;;;;;;;;;;;;5095153;28;19916;-71
2021/07/27 07:57:04;;;;;;;;;;;;;;;;;;5095232;28;20360;-71
2021/07/27 07:59:30;;;;;;;;;;;;;;;;;;5094629;28;19914;-71
2021/07/27 08:01:59;;;;;;;;;;;;;;;;;;5093803;28;20268;-72
2021/07/27 08:04:25;;;;;;;;;;;;;;;;;;5095034;28;20276;-71
2021/07/27 08:06:51;;;;;;;;;;;;;;;;;;5094539;28;19916;-72
2021/07/27 08:09:17;;;;;;;;;;;;;;;;;;5094876;28;19934;-72
2021/07/27 08:11:43;;;;;;;;;;;;;;;;;;5094483;28;19908;-72
2021/07/27 08:14:10;;;;;;;;;;;;;;;;;;5094659;28;19961;-71
2021/07/27 08:16:36;;;;;;;;;;;;;;;;;;5093551;28;19957;-72
2021/07/27 08:19:03;;;;;;;;;;;;;;;;;;5094361;28;19995;-72
2021/07/27 08:21:29;;;;;;;;;;;;;;;;;;5095267;28;20313;-71
2021/07/27 08:23:55;;;;;;;;;;;;;;;;;;5094698;28;19958;-72
2021/07/27 08:26:21;;;;;;;;;;;;;;;;;;5094207;28;19915;-73
2021/07/27 08:28:47;;;;;;;;;;;;;;;;;;5094597;28;19912;-72
2021/07/27 08:31:13;;;;;;;;;;;;;;;;;;5094859;28;20289;-72
2021/07/27 08:33:39;;;;;;;;;;;;;;;;;;5094130;28;19947;-72
2021/07/27 08:36:05;;;;;;;;;;;;;;;;;;5094348;28;20019;-72
2021/07/27 08:38:34;;;;;;;;;;;;;;;;;;5094415;28;20324;-71
2021/07/27 08:41:00;;;;;;;;;;;;;;;;;;5094007;28;19912;-71
2021/07/27 08:43:26;;;;;;;;;;;;;;;;;;5094380;28;19908;-71
2021/07/27 08:45:52;;;;;;;;;;;;;;;;;;5094753;28;20368;-72
2021/07/27 08:48:18;;;;;;;;;;;;;;;;;;5093932;28;19912;-72
2021/07/27 08:50:44;;;;;;;;;;;;;;;;;;5094070;28;19908;-71
2021/07/27 08:53:10;;;;;;;;;;;;;;;;;;5094228;28;19995;-72
2021/07/27 08:55:36;;;;;;;;;;;;;;;;;;5093652;28;20002;-72
2021/07/27 08:58:02;;;;;;;;;;;;;;;;;;5094215;28;19908;-71
2021/07/27 09:00:28;;;;;;;;;;;;;;;;;;5093063;28;20150;-72
2021/07/27 09:02:54;;;;;;;;;;;;;;;;;;5092229;28;19997;-72
2021/07/27 09:05:20;;;;;;;;;;;;;;;;;;5093222;28;19909;-72
2021/07/27 09:07:46;;;;;;;;;;;;;;;;;;5092423;28;19908;-72
2021/07/27 09:10:12;;;;;;;;;;;;;;;;;;5093591;28;19961;-72
2021/07/27 09:12:38;;;;;;;;;;;;;;;;;;5093985;28;20325;-71
2021/07/27 09:15:04;;;;;;;;;;;;;;;;;;5092046;28;20018;-72
2021/07/27 09:17:30;;;;;;;;;;;;;;;;;;5092635;28;19931;-72
2021/07/27 09:19:56;;;;;;;;;;;;;;;;;;5093936;28;19908;-72
2021/07/27 09:22:22;;;;;;;;;;;;;;;;;;5092189;28;19968;-71
2021/07/27 09:24:48;;;;;;;;;;;;;;;;;;5093657;28;20382;-71
2021/07/27 09:27:14;;;;;;;;;;;;;;;;;;5094020;28;19955;-72
2021/07/27 09:29:40;;;;;;;;;;;;;;;;;;5093462;28;20338;-72
2021/07/27 09:32:06;;;;;;;;;;;;;;;;;;5093861;28;19944;-72
2021/07/27 09:34:32;;;;;;;;;;;;;;;;;;5093695;28;19985;-72
2021/07/27 09:36:58;;;;;;;;;;;;;;;;;;5093443;28;19915;-71
2021/07/27 09:39:24;;;;;;;;;;;;;;;;;;5093921;28;19943;-71
2021/07/27 09:41:50;;;;;;;;;;;;;;;;;;5092493;28;19937;-71
2021/07/27 09:44:16;;;;;;;;;;;;;;;;;;5093505;28;19908;-72
2021/07/27 09:46:42;;;;;;;;;;;;;;;;;;5092382;28;20334;-71
2021/07/27 09:49:08;;;;;;;;;;;;;;;;;;5093720;28;19908;-71
2021/07/27 09:51:34;;;;;;;;;;;;;;;;;;5093267;28;19915;-71
2021/07/27 09:54:00;;;;;;;;;;;;;;;;;;5093612;28;19915;-72
2021/07/27 09:56:26;;;;;;;;;;;;;;;;;;5093580;28;19916;-71
2021/07/27 09:58:52;;;;;;;;;;;;;;;;;;5093310;28;19908;-72
2021/07/27 10:01:18;;;;;;;;;;;;;;;;;;5094171;28;19966;-72
2021/07/27 10:03:44;;;;;;;;;;;;;;;;;;5096161;28;19908;-71
2021/07/27 10:06:10;;;;;;;;;;;;;;;;;;5096950;28;20003;-72
2021/07/27 10:08:41;;;;;;;;;;;;;;;;;;5097323;28;19943;-71
2021/07/27 10:11:06;;;;;;;;;;;;;;;;;;5096848;28;19908;-71
2021/07/27 10:13:32;;;;;;;;;;;;;;;;;;5097210;28;20296;-72
2021/07/27 10:15:58;;;;;;;;;;;;;;;;;;5096833;28;19970;-71
2021/07/27 10:18:24;;;;;;;;;;;;;;;;;;5097238;28;19908;-71
2021/07/27 10:20:51;;;;;;;;;;;;;;;;;;5097020;28;20291;-71
2021/07/27 10:23:17;;;;;;;;;;;;;;;;;;5096976;28;19966;-71
2021/07/27 10:25:43;;;;;;;;;;;;;;;;;;5096590;28;19908;-71
2021/07/27 10:28:08;;;;;;;;;;;;;;;;;;5095682;28;19908;-71
2021/07/27 10:30:36;;;;;;;;;;;;;;;;;;5096871;28;20003;-71
2021/07/27 10:33:02;;;;;;;6.45;3.78;;;;;;;;;;5095403;28;20448;-72
2021/07/27 10:35:28;;;;;;;5.97;3.63;;;;;;;;;;5094970;28;20085;-71
2021/07/27 10:37:55;;;;;;;6.95;4.07;;;;;;;;;;5096300;28;20024;-71
2021/07/27 10:40:31;;;;;;;8.05;3.92;;;;;;;;;;5096001;28;20097;-71
2021/07/27 10:42:57;;;;;;;7.50;3.85;;;;;;;;;;5096329;28;20039;-71
2021/07/27 10:45:23;;;;;;;6.47;3.17;;;;;;;;;;5096759;28;20089;-71
2021/07/27 10:47:54;;;;;;;7.65;3.92;;;;;;;;;;5095715;28;20472;-71
2021/07/27 10:50:31;;;;;;;7.80;4.07;;;;;;;;;;5096141;28;20073;-71
2021/07/27 10:53:10;;;;;;;9.00;4.82;;;;;;;;;;5094718;28;20533;-71
2021/07/27 10:55:42;;;;;;;9.95;3.75;;;;;;;;;;5095524;28;20579;-71
2021/07/27 10:58:16;;;;;;;7.20;3.97;;;;;;;;;;5096343;28;20020;-72
2021/07/27 11:00:42;;;;;;;9.57;4.45;;;;;;;;;;5095552;28;20024;-72
2021/07/27 11:03:08;;;;;;;10.43;4.30;;;;;;;;;;5094502;28;20103;-72
2021/07/27 11:05:37;;;;;;;7.75;3.85;;;;;;;;;;5095739;28;20032;-72
2021/07/27 11:08:03;;;;;;;6.47;3.08;;;;;;;;;;5095317;28;20511;-72
2021/07/27 11:10:30;;;;;;;10.25;4.60;;;;;;;;;;5095646;28;20035;-70
2021/07/27 11:12:58;;;;;;;5.65;3.30;;;;;;;;;;5095758;28;20472;-70
2021/07/27 11:15:25;;;;;;;6.68;3.97;;;;;;;;;;5095163;28;20044;-70
2021/07/27 11:18:01;;;;;;;6.53;4.30;;;;;;;;;;5095532;28;20133;-69
2021/07/27 11:20:31;;;;;;;10.43;4.13;;;;;;;;;;5094229;28;20438;-69
2021/07/27 11:22:58;;;;;;;11.57;3.60;;;;;;;;;;5095392;28;20023;-70
2021/07/27 11:25:25;;;;;;;6.95;3.30;;;;;;;;;;5095816;28;20031;-69
2021/07/27 11:27:52;;;;;;;8.82;3.92;;;;;;;;;;5095359;28;20020;-69
2021/07/27 11:30:19;;;;;;;7.50;3.58;;;;;;;;;;5095010;28;20032;-70
2021/07/27 11:32:45;;;;;;;8.45;3.92;;;;;;;;;;5093872;28;20024;-70
2021/07/27 11:35:12;;;;;;;11.27;3.30;;;;;;;;;;5095140;28;20090;-69
2021/07/27 11:37:39;;;;;;;7.25;3.63;;;;;;;;;;5094682;28;20033;-69
2021/07/27 11:40:05;;;;;;;8.90;4.07;;;;;;;;;;5095090;28;20445;-69
2021/07/27 11:42:32;;;;;;;8.57;3.40;;;;;;;;;;5094439;28;20317;-70
2021/07/27 11:45:04;;;;;;;10.02;4.88;;;;;;;;;;5094963;28;20028;-70
2021/07/27 11:47:43;;;;;;;6.30;3.47;;;;;;;;;;5095033;28;20027;-70
2021/07/27 11:50:13;;;;;;;6.95;3.92;;;;;;;;;;5093321;28;20016;-70
2021/07/27 11:52:40;;;;;;;7.00;4.22;;;;;;;;;;5094743;28;20036;-70
2021/07/27 11:55:06;;;;;;;6.00;3.70;;;;;;;;;;5094632;28;20028;-70
2021/07/27 11:57:34;;;;;;;7.25;3.80;;;;;;;;;;5094405;28;20036;-70
2021/07/27 12:00:12;;;;;;;11.73;4.22;;;;;;;;;;5094718;28;20476;-70
2021/07/27 12:02:38;;;;;;;9.75;4.43;;;;;;;;;;5094654;28;20112;-70
2021/07/27 12:05:06;;;;;;;12.15;4.70;;;;;;;;;;5094097;28;20020;-70
2021/07/27 12:07:32;;;;;;;10.55;4.70;;;;;;;;;;5094901;28;20031;-70
2021/07/27 12:09:58;;;;;;;10.10;4.50;;;;;;;;;;5094501;28;20020;-70
2021/07/27 12:12:24;;;;;;;8.10;4.10;;;;;;;;;;5093994;28;20031;-70
2021/07/27 12:14:50;;;;;;;7.32;4.20;;;;;;;;;;5094182;28;20044;-70
2021/07/27 12:17:16;;;;;;;14.85;4.55;;;;;;;;;;5093070;28;20494;-70
2021/07/27 12:19:43;;;;;;;8.27;3.40;;;;;;;;;;5093885;28;20093;-70
2021/07/27 12:22:09;;;;;;;8.85;3.78;;;;;;;;;;5094434;28;20024;-70
2021/07/27 12:24:35;;;;;;;10.48;4.30;;;;;;;;;;5094276;28;20012;-70
2021/07/27 12:27:01;;;;;;;7.15;3.85;;;;;;;;;;5093714;28;20024;-70
2021/07/27 12:29:27;;;;;;;11.45;3.58;;;;;;;;;;5094085;28;20480;-70
2021/07/27 12:31:54;;;;;;;7.20;3.45;;;;;;;;;;5093721;28;20392;-71
2021/07/27 12:34:20;;;;;;;10.23;4.07;;;;;;;;;;5094441;28;20024;-70
2021/07/27 12:36:46;;;;;;;9.57;3.92;;;;;;;;;;5094582;28;20032;-70
2021/07/27 12:39:12;;;;;;;9.10;4.38;;;;;;;;;;5093566;28;20027;-70
2021/07/27 12:41:38;;;;;;;9.50;3.80;;;;;;;;;;5093917;28;20024;-70
2021/07/27 12:44:05;;;;;;;10.10;3.95;;;;;;;;;;5093906;28;20376;-70
2021/07/27 12:46:32;;;;;;;7.82;4.00;;;;;;;;;;5092243;28;20016;-70
2021/07/27 12:48:59;;;;;;;9.88;4.10;;;;;;;;;;5093800;28;20032;-70
2021/07/27 12:51:26;;;;;;;9.40;3.85;;;;;;;;;;5094067;28;20017;-70
2021/07/27 12:53:52;;;;;;;8.55;4.05;;;;;;;;;;5093408;28;20058;-71
2021/07/27 12:56:18;;;;;;;10.43;3.75;;;;;;;;;;5093886;28;20031;-71
2021/07/27 12:58:44;;;;;;;9.50;4.22;;;;;;;;;;5093707;28;20027;-71
2021/07/27 13:01:10;;;;;;;8.07;4.10;;;;;;;;;;5093245;28;20031;-71
2021/07/27 13:03:37;;;;;;;9.40;3.80;;;;;;;;;;5092405;28;20385;-70
2021/07/27 13:06:03;;;;;;;8.60;3.78;;;;;;;;;;5093611;28;20036;-70
2021/07/27 13:08:29;;;;;;;13.68;3.80;;;;;;;;;;5093225;28;20043;-70
2021/07/27 13:10:55;;;;;;;10.30;4.45;;;;;;;;;;5093759;28;20016;-71
2021/07/27 13:13:22;;;;;;;10.20;3.90;;;;;;;;;;5092274;28;20145;-70
2021/07/27 13:15:48;;;;;;;10.73;3.72;;;;;;;;;;5092897;28;20123;-70
2021/07/27 13:18:16;;;;;;;9.25;4.40;;;;;;;;;;5093530;28;20024;-70
2021/07/27 13:20:43;;;;;;;8.40;3.15;;;;;;;;;;5093524;28;20026;-70
2021/07/27 13:23:09;;;;;;;7.75;3.55;;;;;;;;;;5093073;28;20021;-70
2021/07/27 13:25:35;;;;;;;7.68;3.55;;;;;;;;;;5093479;28;20095;-70
2021/07/27 13:28:01;;;;;;;9.98;4.15;;;;;;;;;;5092990;28;20537;-70
2021/07/27 13:30:28;;;;;;;7.43;3.40;;;;;;;;;;5093763;28;20122;-70
2021/07/27 13:32:54;;;;;;;9.25;3.90;;;;;;;;;;5093412;28;20032;-70
2021/07/27 13:35:20;;;;;;;6.85;3.88;;;;;;;;;;5092971;28;20039;-70
2021/07/27 13:37:47;;;;;;;11.80;4.22;;;;;;;;;;5096687;28;20392;-71
2021/07/27 13:40:13;;;;;;;16.63;4.00;;;;;;;;;;5097419;28;20016;-70
2021/07/27 13:42:39;;;;;;;10.80;3.63;;;;;;;;;;5095698;28;20024;-70
2021/07/27 13:45:06;;;;;;;10.77;4.03;;;;;;;;;;5097436;28;20491;-71
2021/07/27 13:47:33;;;;;;;10.48;3.72;;;;;;;;;;5097235;28;20103;-70
2021/07/27 13:50:02;;;;;;;5.93;3.13;;;;;;;;;;5096867;28;20020;-71
2021/07/27 13:52:29;;;;;;;11.77;4.65;;;;;;;;;;5097390;28;20044;-71
2021/07/27 13:54:55;;;;;;;8.68;3.50;;;;;;;;;;5095768;28;20484;-71
2021/07/27 13:57:21;;;;;;;6.95;3.03;;;;;;;;;;5096764;28;20027;-71
2021/07/27 13:59:47;;;;;;;9.88;3.20;;;;;;;;;;5096980;28;20093;-71
2021/07/27 14:02:14;;;;;;;6.78;3.17;;;;;;;;;;5097097;28;20067;-71
2021/07/27 14:04:40;;;;;;;8.77;3.83;;;;;;;;;;5096504;28;20480;-70
2021/07/27 14:07:07;;;;;;;10.88;3.80;;;;;;;;;;5096921;28;20024;-71
2021/07/27 14:09:33;;;;;;;10.73;3.58;;;;;;;;;;5096869;28;20020;-70
2021/07/27 14:11:59;;;;;;;7.90;3.85;;;;;;;;;;5096450;28;20365;-70
2021/07/27 14:14:26;;;;;;;9.13;3.78;;;;;;;;;;5096727;28;20043;-70
2021/07/27 14:16:52;;;;;;;5.85;3.40;;;;;;;;;;5095407;28;20028;-71
2021/07/27 14:19:18;;;;;;;10.07;3.92;;;;;;;;;;5095047;28;20458;-70
2021/07/27 14:21:44;;;;;;;10.35;3.90;;;;;;;;;;5096824;28;20032;-71
2021/07/27 14:24:11;;;;;;;12.25;3.65;;;;;;;;;;5096601;28;20028;-70
2021/07/27 14:26:37;;;;;;;9.00;3.58;;;;;;;;;;5096142;28;20024;-71
2021/07/27 14:29:04;;;;;;;11.45;4.10;;;;;;;;;;5096430;28;20024;-70
2021/07/27 14:31:30;;;;;;;8.38;3.95;;;;;;;;;;5096314;28;20039;-70
2021/07/27 14:33:58;;;;;;;9.65;3.40;;;;;;;;;;5096611;28;20024;-70
2021/07/27 14:36:24;;;;;;;9.65;3.45;;;;;;;;;;5096326;28;20119;-70
2021/07/27 14:38:50;;;;;;;9.23;3.80;;;;;;;;;;5096200;28;20023;-71
2021/07/27 14:41:16;;;;;;;9.13;4.63;;;;;;;;;;5096437;28;20099;-70
2021/07/27 14:43:43;;;;;;;6.97;3.00;;;;;;;;;;5094925;28;20024;-70
2021/07/27 14:46:09;;;;;;;7.20;2.72;;;;;;;;;;5094481;28;20032;-70
2021/07/27 14:48:38;;;;;;;9.98;2.90;;;;;;;;;;5095593;28;20027;-71
2021/07/27 14:51:04;;;;;;;9.15;3.28;;;;;;;;;;5094857;28;20404;-71
2021/07/27 14:53:30;;;;;;;7.28;3.40;;;;;;;;;;5094364;28;20077;-71
2021/07/27 14:55:57;;;;;;;13.02;4.57;;;;;;;;;;5096093;28;20032;-71
2021/07/27 14:58:23;;;;;;;9.30;3.47;;;;;;;;;;5095943;28;20055;-70
2021/07/27 15:00:49;;;;;;;11.75;4.22;;;;;;;;;;5095676;28;20035;-70
2021/07/27 15:03:15;;;;;;;12.00;3.38;;;;;;;;;;5095929;28;20387;-70
2021/07/27 15:05:41;;;;;;;9.90;3.90;;;;;;;;;;5094541;28;20024;-71
2021/07/27 15:08:08;;;;;;;8.95;4.85;;;;;;;;;;5094046;28;20496;-70
2021/07/27 15:10:34;;;;;;;13.38;4.55;;;;;;;;;;5095583;28;20028;-70
2021/07/27 15:13:01;;;;;;;13.13;4.50;;;;;;;;;;5095682;28;20042;-70
2021/07/27 15:15:27;;;;;;;9.45;4.43;;;;;;;;;;5094912;28;20106;-70
2021/07/27 15:17:53;;;;;;;14.15;5.22;;;;;;;;;;5095591;28;20020;-70
2021/07/27 15:20:19;;;;;;;9.13;3.95;;;;;;;;;;5095519;28;20059;-70
2021/07/27 15:22:45;;;;;;;11.88;4.57;;;;;;;;;;5095195;28;20070;-70
2021/07/27 15:25:12;;;;;;;14.85;4.40;;;;;;;;;;5095692;28;20020;-70
2021/07/27 15:27:41;;;;;;;11.07;4.80;;;;;;;;;;5094942;28;20484;-70
2021/07/27 15:30:08;;;;;;;9.35;3.83;;;;;;;;;;5095474;28;20118;-70
2021/07/27 15:32:35;;;;;;;13.52;4.25;;;;;;;;;;5095301;28;20047;-70
2021/07/27 15:35:01;;;;;;;13.90;4.85;;;;;;;;;;5094759;28;20039;-70
2021/07/27 15:37:27;;;;;;;13.05;4.03;;;;;;;;;;5095146;28;20051;-70
2021/07/27 15:39:53;;;;;;;9.38;5.07;;;;;;;;;;5095094;28;20048;-70
2021/07/27 15:42:20;;;;;;;10.30;4.03;;;;;;;;;;5094746;28;20027;-70
2021/07/27 15:44:46;;;;;;;9.98;3.63;;;;;;;;;;5095060;28;20031;-70
2021/07/27 15:47:12;;;;;;;15.88;5.43;;;;;;;;;;5095065;28;20016;-70
2021/07/27 15:49:38;;;;;;;8.57;3.70;;;;;;;;;;5094545;28;20532;-71
2021/07/27 15:52:05;;;;;;;6.35;3.17;;;;;;;;;;5094956;28;20095;-70
2021/07/27 15:54:31;;;;;;;12.75;4.70;;;;;;;;;;5094737;28;20024;-71
2021/07/27 15:56:57;;;;;;;11.95;3.80;;;;;;;;;;5094483;28;20024;-71
2021/07/27 15:59:23;;;;;;;14.07;4.25;;;;;;;;;;5093894;28;20031;-71
2021/07/27 16:01:49;;;;;;;7.72;3.50;;;;;;;;;;5094718;28;20383;-70
2021/07/27 16:04:15;;;;;;;8.85;3.80;;;;;;;;;;5094319;28;20031;-71
2021/07/27 16:06:41;;;;;;;7.97;4.05;;;;;;;;;;5094579;28;20030;-71
2021/07/27 16:09:08;;;;;;;7.45;3.47;;;;;;;;;;5093256;28;20364;-71
2021/07/27 16:11:34;;;;;;;13.93;3.10;;;;;;;;;;5092819;28;20025;-71
2021/07/27 16:14:00;;;;;;;8.85;3.25;;;;;;;;;;5094516;28;20361;-69
2021/07/27 16:16:27;;;;;;;12.13;3.60;;;;;;;;;;5094271;28;20490;-70